Portada
METAR-TAF:

METAR-TAF

Aeropuertos :

Base Aérea de Getafe

Madrid-Getafe, España

latitud: 40-18N, longitud: 003-43W, altitud: 620 m

Observación

El informe se hizo hace 51 minutos, a las 11:00 UTC
Viento 4 kt con dirección variable
Temperatura 18°C
Humedad 45%
Presión 1016 hPa
Visibilidad 10 km o más
Nubes dispersas a una altura de 4100 ft
Nubes dispersas a una altura de 4900 ft

METAR: LEGT 261100Z VRB04KT 9999 SCT041 SCT049 18/06 Q1016

Hora: 13:51 (11:51 UTC)

Pronóstico

El informe se hizo hace 51 minutos, a las 11:00 UTC
Pronóstico válido del 26 a las 12 UTC al 27 a las 12 UTC
Viento 5 kt con dirección variable
Visibilidad 10 km o más
Escasas nubes a una altura de 4500 ft
Evolucionando progresivamente
del 27 a las 11 UTC al 27 a las 12 UTC
Viento 11 kt del noroeste

TAF: LEGT 261100Z 2612/2712 VRB05KT 9999 FEW045 TX24/2615Z TN09/2706Z BECMG 2711/2712 31011KT

Observaciones y pronósticos meteorológicos de más de 4000 aeropuertos (mensajes METAR y TAF).

Los puntos amarillos y rojos representan las estaciones disponibles.

Ponga el ratón en el punto deseado para ver el nombre de la estación.

Haga clic para ver las observaciones y los pronósticos meteorológicos.

Para cambiar el mapa : haga clic en los botones verdes con una cruz de color negro para hacer un zoom, en el botón verde con un guión para alejar o en las flechas verdes para mapas adyacentes.


METAR-TAF: